sensor_id;sensor_type;location;lat;lon;timestamp;pressure;altitude;pressure_sealevel;temperature;humidity
71966;BME280;59836;52.132;5.442;2022-10-23T00:01:49;101493.31;;;11.17;94.26
71966;BME280;59836;52.132;5.442;2022-10-23T00:04:29;101480.25;;;11.14;94.21
71966;BME280;59836;52.132;5.442;2022-10-23T00:06:56;101483.22;;;11.12;93.83
71966;BME280;59836;52.132;5.442;2022-10-23T00:09:23;101480.53;;;11.12;94.54
71966;BME280;59836;52.132;5.442;2022-10-23T00:11:50;101478.88;;;11.11;94.25
71966;BME280;59836;52.132;5.442;2022-10-23T00:14:19;101482.66;;;11.10;94.30
71966;BME280;59836;52.132;5.442;2022-10-23T00:16:46;101479.41;;;11.08;94.26
71966;BME280;59836;52.132;5.442;2022-10-23T00:19:23;101484.81;;;11.08;94.15
71966;BME280;59836;52.132;5.442;2022-10-23T00:21:51;101492.41;;;11.06;93.99
71966;BME280;59836;52.132;5.442;2022-10-23T00:24:36;101484.25;;;11.06;94.23
71966;BME280;59836;52.132;5.442;2022-10-23T00:27:08;101488.63;;;11.07;94.21
71966;BME280;59836;52.132;5.442;2022-10-23T00:29:34;101486.97;;;11.06;93.86
71966;BME280;59836;52.132;5.442;2022-10-23T00:32:07;101484.50;;;11.04;94.25
71966;BME280;59836;52.132;5.442;2022-10-23T00:34:51;101480.41;;;11.02;94.14
71966;BME280;59836;52.132;5.442;2022-10-23T00:40:29;101477.16;;;11.00;93.83
71966;BME280;59836;52.132;5.442;2022-10-23T00:42:57;101475.50;;;10.99;94.19
71966;BME280;59836;52.132;5.442;2022-10-23T00:45:33;101473.31;;;10.96;93.89
71966;BME280;59836;52.132;5.442;2022-10-23T00:51:32;101463.53;;;10.95;94.16
71966;BME280;59836;52.132;5.442;2022-10-23T00:54:01;101468.94;;;10.95;94.59
71966;BME280;59836;52.132;5.442;2022-10-23T00:56:48;101470.59;;;10.96;94.53
71966;BME280;59836;52.132;5.442;2022-10-23T00:59:14;101472.22;;;10.97;94.32
71966;BME280;59836;52.132;5.442;2022-10-23T01:01:41;101469.50;;;10.97;94.59
71966;BME280;59836;52.132;5.442;2022-10-23T01:04:16;101466.81;;;10.97;94.63
71966;BME280;59836;52.132;5.442;2022-10-23T01:13:16;101468.44;;;10.98;94.58
71966;BME280;59836;52.132;5.442;2022-10-23T01:15:52;101470.88;;;10.99;94.73
71966;BME280;59836;52.132;5.442;2022-10-23T01:18:38;101480.41;;;11.02;94.57
71966;BME280;59836;52.132;5.442;2022-10-23T01:21:19;101459.50;;;11.02;94.40
71966;BME280;59836;52.132;5.442;2022-10-23T01:23:55;101464.94;;;11.02;94.67
71966;BME280;59836;52.132;5.442;2022-10-23T01:26:42;101453.28;;;11.02;94.73
71966;BME280;59836;52.132;5.442;2022-10-23T01:29:45;101458.72;;;11.02;94.39
71966;BME280;59836;52.132;5.442;2022-10-23T01:32:26;101453.28;;;11.02;94.58
71966;BME280;59836;52.132;5.442;2022-10-23T01:35:18;101460.34;;;11.03;94.42
71966;BME280;59836;52.132;5.442;2022-10-23T01:37:54;101457.34;;;11.04;94.23
71966;BME280;59836;52.132;5.442;2022-10-23T01:40:47;101450.06;;;11.05;94.87
71966;BME280;59836;52.132;5.442;2022-10-23T01:43:25;101454.41;;;11.06;94.64
71966;BME280;59836;52.132;5.442;2022-10-23T01:46:00;101444.34;;;11.06;94.66
71966;BME280;59836;52.132;5.442;2022-10-23T01:48:28;101443.53;;;11.06;94.88
71966;BME280;59836;52.132;5.442;2022-10-23T01:50:59;101445.19;;;11.07;95.01
71966;BME280;59836;52.132;5.442;2022-10-23T01:53:29;101440.00;;;11.05;94.69
71966;BME280;59836;52.132;5.442;2022-10-23T01:55:58;101435.41;;;11.06;94.74
71966;BME280;59836;52.132;5.442;2022-10-23T01:58:26;101434.31;;;11.07;94.66
71966;BME280;59836;52.132;5.442;2022-10-23T02:00:58;101425.63;;;11.05;94.55
71966;BME280;59836;52.132;5.442;2022-10-23T02:03:28;101422.91;;;11.05;94.56
71966;BME280;59836;52.132;5.442;2022-10-23T02:06:00;101420.19;;;11.05;94.33
71966;BME280;59836;52.132;5.442;2022-10-23T02:08:31;101417.47;;;11.05;94.68
71966;BME280;59836;52.132;5.442;2022-10-23T02:11:03;101411.50;;;11.03;94.37
71966;BME280;59836;52.132;5.442;2022-10-23T02:13:41;101410.66;;;11.02;94.76
71966;BME280;59836;52.132;5.442;2022-10-23T02:20:16;101407.66;;;10.99;94.42
71966;BME280;59836;52.132;5.442;2022-10-23T02:22:37;101405.47;;;10.96;94.33
71966;BME280;59836;52.132;5.442;2022-10-23T02:25:11;101400.03;;;10.96;94.47
71966;BME280;59836;52.132;5.442;2022-10-23T02:27:57;101393.19;;;10.93;94.46
71966;BME280;59836;52.132;5.442;2022-10-23T02:30:38;101393.47;;;10.91;94.35
71966;BME280;59836;52.132;5.442;2022-10-23T02:33:09;101384.50;;;10.91;94.25
71966;BME280;59836;52.132;5.442;2022-10-23T02:35:36;101378.28;;;10.90;94.55
71966;BME280;59836;52.132;5.442;2022-10-23T02:38:27;101379.34;;;10.89;94.45
71966;BME280;59836;52.132;5.442;2022-10-23T02:41:19;101372.28;;;10.88;94.11
71966;BME280;59836;52.132;5.442;2022-10-23T02:47:09;101382.56;;;10.86;94.28
71966;BME280;59836;52.132;5.442;2022-10-23T02:50:03;101372.81;;;10.85;94.66
71966;BME280;59836;52.132;5.442;2022-10-23T02:58:23;101375.25;;;10.87;94.64
71966;BME280;59836;52.132;5.442;2022-10-23T03:01:08;101372.81;;;10.85;94.53
71966;BME280;59836;52.132;5.442;2022-10-23T03:04:03;101379.31;;;10.84;94.78
71966;BME280;59836;52.132;5.442;2022-10-23T03:06:32;101377.38;;;10.85;94.58
71966;BME280;59836;52.132;5.442;2022-10-23T03:09:05;101353.25;;;10.83;94.40
71966;BME280;59836;52.132;5.442;2022-10-23T03:11:41;101358.66;;;10.83;94.07
71966;BME280;59836;52.132;5.442;2022-10-23T03:14:15;101361.09;;;10.85;94.99
71966;BME280;59836;52.132;5.442;2022-10-23T03:16:41;101354.88;;;10.84;94.82
71966;BME280;59836;52.132;5.442;2022-10-23T03:19:08;101351.91;;;10.86;94.84
71966;BME280;59836;52.132;5.442;2022-10-23T03:21:35;101348.09;;;10.87;94.80
71966;BME280;59836;52.132;5.442;2022-10-23T03:24:01;101342.44;;;10.88;94.82
71966;BME280;59836;52.132;5.442;2022-10-23T03:26:28;101343.25;;;10.89;94.78
71966;BME280;59836;52.132;5.442;2022-10-23T03:28:58;101345.16;;;10.88;94.65
71966;BME280;59836;52.132;5.442;2022-10-23T03:31:25;101343.00;;;10.90;94.68
71966;BME280;59836;52.132;5.442;2022-10-23T03:34:02;101340.53;;;10.89;94.72
71966;BME280;59836;52.132;5.442;2022-10-23T03:36:33;101342.16;;;10.90;94.76
71966;BME280;59836;52.132;5.442;2022-10-23T03:38:59;101336.50;;;10.91;95.00
71966;BME280;59836;52.132;5.442;2022-10-23T03:41:57;101326.44;;;10.92;94.81
71966;BME280;59836;52.132;5.442;2022-10-23T03:44:28;101324.56;;;10.92;95.07
71966;BME280;59836;52.132;5.442;2022-10-23T03:46:56;101320.75;;;10.93;95.07
71966;BME280;59836;52.132;5.442;2022-10-23T03:49:27;101324.28;;;10.94;94.93
71966;BME280;59836;52.132;5.442;2022-10-23T03:51:53;101326.19;;;10.93;95.09
71966;BME280;59836;52.132;5.442;2022-10-23T03:54:22;101319.13;;;10.92;94.97
71966;BME280;59836;52.132;5.442;2022-10-23T03:56:56;101306.63;;;10.91;95.03
71966;BME280;59836;52.132;5.442;2022-10-23T04:02:42;101301.72;;;10.88;94.76
71966;BME280;59836;52.132;5.442;2022-10-23T04:05:10;101298.47;;;10.86;94.66
71966;BME280;59836;52.132;5.442;2022-10-23T04:07:44;101287.59;;;10.86;94.82
71966;BME280;59836;52.132;5.442;2022-10-23T04:10:18;101280.53;;;10.85;94.80
71966;BME280;59836;52.132;5.442;2022-10-23T04:12:44;101276.19;;;10.84;94.93
71966;BME280;59836;52.132;5.442;2022-10-23T04:15:34;101269.13;;;10.83;94.87
71966;BME280;59836;52.132;5.442;2022-10-23T04:18:00;101274.00;;;10.81;94.63
71966;BME280;59836;52.132;5.442;2022-10-23T04:20:37;101271.28;;;10.81;94.67
71966;BME280;59836;52.132;5.442;2022-10-23T04:23:05;101270.22;;;10.82;94.71
71966;BME280;59836;52.132;5.442;2022-10-23T04:25:41;101268.56;;;10.81;94.77
71966;BME280;59836;52.132;5.442;2022-10-23T04:31:20;101259.03;;;10.78;94.78
71966;BME280;59836;52.132;5.442;2022-10-23T04:33:54;101251.47;;;10.81;94.83
71966;BME280;59836;52.132;5.442;2022-10-23T04:36:21;101256.09;;;10.80;94.65
71966;BME280;59836;52.132;5.442;2022-10-23T04:38:48;101244.41;;;10.80;94.64
71966;BME280;59836;52.132;5.442;2022-10-23T04:41:14;101250.66;;;10.80;94.53
71966;BME280;59836;52.132;5.442;2022-10-23T04:43:40;101249.81;;;10.80;94.68
71966;BME280;59836;52.132;5.442;2022-10-23T04:46:11;101249.03;;;10.79;94.91
71966;BME280;59836;52.132;5.442;2022-10-23T04:49:00;101241.97;;;10.78;95.03
71966;BME280;59836;52.132;5.442;2022-10-23T04:51:26;101246.56;;;10.77;94.94
71966;BME280;59836;52.132;5.442;2022-10-23T04:54:07;101240.88;;;10.79;95.00
71966;BME280;59836;52.132;5.442;2022-10-23T04:56:34;101246.03;;;10.81;95.22
71966;BME280;59836;52.132;5.442;2022-10-23T04:59:01;101239.81;;;10.80;94.83
71966;BME280;59836;52.132;5.442;2022-10-23T05:01:32;101234.38;;;10.80;95.06
71966;BME280;59836;52.132;5.442;2022-10-23T05:03:59;101221.38;;;10.82;95.42
71966;BME280;59836;52.132;5.442;2022-10-23T05:06:25;101223.00;;;10.83;95.45
71966;BME280;59836;52.132;5.442;2022-10-23T05:08:52;101227.91;;;10.86;95.40
71966;BME280;59836;52.132;5.442;2022-10-23T05:11:18;101217.84;;;10.87;95.28
71966;BME280;59836;52.132;5.442;2022-10-23T05:13:45;101226.56;;;10.89;95.40
71966;BME280;59836;52.132;5.442;2022-10-23T05:16:38;101239.34;;;10.93;95.85
71966;BME280;59836;52.132;5.442;2022-10-23T05:19:09;101233.41;;;10.97;95.53
71966;BME280;59836;52.132;5.442;2022-10-23T05:21:40;101218.19;;;10.96;95.98
71966;BME280;59836;52.132;5.442;2022-10-23T05:24:35;101214.41;;;10.97;96.06
71966;BME280;59836;52.132;5.442;2022-10-23T05:27:02;101217.66;;;10.99;95.67
71966;BME280;59836;52.132;5.442;2022-10-23T05:29:28;101228.00;;;11.02;95.90
71966;BME280;59836;52.132;5.442;2022-10-23T05:31:58;101233.97;;;11.04;95.79
71966;BME280;59836;52.132;5.442;2022-10-23T05:34:37;101228.84;;;11.07;96.04
71966;BME280;59836;52.132;5.442;2022-10-23T05:37:14;101225.34;;;11.12;95.99
71966;BME280;59836;52.132;5.442;2022-10-23T05:39:41;101223.97;;;11.15;96.33
71966;BME280;59836;52.132;5.442;2022-10-23T05:42:13;101226.41;;;11.16;96.50
71966;BME280;59836;52.132;5.442;2022-10-23T05:44:39;101219.13;;;11.22;96.60
71966;BME280;59836;52.132;5.442;2022-10-23T05:47:12;101215.34;;;11.23;96.42
71966;BME280;59836;52.132;5.442;2022-10-23T05:49:39;101221.88;;;11.27;96.62
71966;BME280;59836;52.132;5.442;2022-10-23T05:52:05;101216.72;;;11.31;97.00
71966;BME280;59836;52.132;5.442;2022-10-23T05:54:31;101216.72;;;11.31;96.61
71966;BME280;59836;52.132;5.442;2022-10-23T05:56:58;101215.63;;;11.32;96.74
71966;BME280;59836;52.132;5.442;2022-10-23T05:59:24;101212.38;;;11.35;96.60
71966;BME280;59836;52.132;5.442;2022-10-23T06:01:55;101204.00;;;11.36;96.80
71966;BME280;59836;52.132;5.442;2022-10-23T06:04:21;101204.25;;;11.40;96.80
71966;BME280;59836;52.132;5.442;2022-10-23T06:07:06;101197.75;;;11.41;96.71
71966;BME280;59836;52.132;5.442;2022-10-23T06:09:33;101206.72;;;11.42;96.48
71966;BME280;59836;52.132;5.442;2022-10-23T06:12:01;101191.22;;;11.42;96.47
71966;BME280;59836;52.132;5.442;2022-10-23T06:14:34;101192.88;;;11.43;96.98
71966;BME280;59836;52.132;5.442;2022-10-23T06:17:00;101194.25;;;11.46;97.04
71966;BME280;59836;52.132;5.442;2022-10-23T06:19:27;101192.31;;;11.46;96.63
71966;BME280;59836;52.132;5.442;2022-10-23T06:22:18;101182.31;;;11.47;96.75
71966;BME280;59836;52.132;5.442;2022-10-23T06:24:45;101178.50;;;11.48;96.62
71966;BME280;59836;52.132;5.442;2022-10-23T06:27:12;101175.50;;;11.49;96.94
71966;BME280;59836;52.132;5.442;2022-10-23T06:29:54;101171.69;;;11.50;96.78
71966;BME280;59836;52.132;5.442;2022-10-23T06:32:21;101173.34;;;11.51;96.65
71966;BME280;59836;52.132;5.442;2022-10-23T06:34:48;101171.69;;;11.50;96.82
71966;BME280;59836;52.132;5.442;2022-10-23T06:37:15;101177.97;;;11.51;96.44
71966;BME280;59836;52.132;5.442;2022-10-23T06:40:09;101169.53;;;11.52;96.71
71966;BME280;59836;52.132;5.442;2022-10-23T06:42:36;101165.19;;;11.51;96.49
71966;BME280;59836;52.132;5.442;2022-10-23T06:45:04;101160.59;;;11.52;96.86
71966;BME280;59836;52.132;5.442;2022-10-23T06:47:33;101165.72;;;11.54;96.59
71966;BME280;59836;52.132;5.442;2022-10-23T06:50:16;101159.22;;;11.55;96.61
71966;BME280;59836;52.132;5.442;2022-10-23T06:56:04;101151.91;;;11.55;96.99
71966;BME280;59836;52.132;5.442;2022-10-23T06:58:31;101148.91;;;11.57;96.86
71966;BME280;59836;52.132;5.442;2022-10-23T07:01:02;101140.50;;;11.58;96.95
71966;BME280;59836;52.132;5.442;2022-10-23T07:03:41;101148.38;;;11.60;96.85
71966;BME280;59836;52.132;5.442;2022-10-23T07:06:08;101136.97;;;11.63;96.89
71966;BME280;59836;52.132;5.442;2022-10-23T07:08:38;101142.13;;;11.64;96.97
71966;BME280;59836;52.132;5.442;2022-10-23T07:11:07;101130.97;;;11.66;96.88
71966;BME280;59836;52.132;5.442;2022-10-23T07:13:34;101141.31;;;11.69;96.90
71966;BME280;59836;52.132;5.442;2022-10-23T07:16:10;101149.19;;;11.71;96.68
71966;BME280;59836;52.132;5.442;2022-10-23T07:18:43;101149.47;;;11.74;96.82
71966;BME280;59836;52.132;5.442;2022-10-23T07:21:16;101147.31;;;11.76;96.99
71966;BME280;59836;52.132;5.442;2022-10-23T07:23:48;101136.97;;;11.78;96.87
71966;BME280;59836;52.132;5.442;2022-10-23T07:26:16;101140.25;;;11.80;96.90
71966;BME280;59836;52.132;5.442;2022-10-23T07:28:44;101132.34;;;11.84;96.59
71966;BME280;59836;52.132;5.442;2022-10-23T07:31:13;101141.88;;;11.87;96.80
71966;BME280;59836;52.132;5.442;2022-10-23T07:33:39;101138.06;;;11.88;97.18
71966;BME280;59836;52.132;5.442;2022-10-23T07:36:07;101135.06;;;11.89;96.92
71966;BME280;59836;52.132;5.442;2022-10-23T07:38:34;101134.53;;;11.92;96.94
71966;BME280;59836;52.132;5.442;2022-10-23T07:41:04;101135.63;;;11.96;97.00
71966;BME280;59836;52.132;5.442;2022-10-23T07:43:40;101124.22;;;12.00;97.07
71966;BME280;59836;52.132;5.442;2022-10-23T07:46:07;101137.56;;;12.06;97.13
71966;BME280;59836;52.132;5.442;2022-10-23T07:48:35;101132.38;;;12.10;97.13
71966;BME280;59836;52.132;5.442;2022-10-23T07:51:05;101126.41;;;12.13;97.38
71966;BME280;59836;52.132;5.442;2022-10-23T07:56:38;101112.53;;;12.20;97.61
71966;BME280;59836;52.132;5.442;2022-10-23T07:59:04;101119.03;;;12.24;97.39
71966;BME280;59836;52.132;5.442;2022-10-23T08:01:36;101107.06;;;12.25;97.26
71966;BME280;59836;52.132;5.442;2022-10-23T08:04:04;101096.19;;;12.30;97.62
71966;BME280;59836;52.132;5.442;2022-10-23T08:06:31;101110.31;;;12.32;97.60
71966;BME280;59836;52.132;5.442;2022-10-23T08:08:58;101101.34;;;12.37;97.86
71966;BME280;59836;52.132;5.442;2022-10-23T08:11:29;101109.22;;;12.38;97.53
71966;BME280;59836;52.132;5.442;2022-10-23T08:14:01;101104.06;;;12.42;97.14
71966;BME280;59836;52.132;5.442;2022-10-23T08:16:35;101103.75;;;12.49;97.45
71966;BME280;59836;52.132;5.442;2022-10-23T08:19:20;101104.84;;;12.53;97.57
71966;BME280;59836;52.132;5.442;2022-10-23T08:22:08;101107.00;;;12.56;97.58
71966;BME280;59836;52.132;5.442;2022-10-23T08:24:35;101096.41;;;12.60;98.01
71966;BME280;59836;52.132;5.442;2022-10-23T08:27:02;101097.75;;;12.62;97.93
71966;BME280;59836;52.132;5.442;2022-10-23T08:29:29;101099.91;;;12.65;97.65
71966;BME280;59836;52.132;5.442;2022-10-23T08:31:55;101102.09;;;12.68;97.87
71966;BME280;59836;52.132;5.442;2022-10-23T08:34:22;101107.78;;;12.72;97.92
71966;BME280;59836;52.132;5.442;2022-10-23T08:36:49;101079.19;;;12.75;97.97
71966;BME280;59836;52.132;5.442;2022-10-23T08:39:15;101079.44;;;12.78;97.63
71966;BME280;59836;52.132;5.442;2022-10-23T08:41:47;101079.72;;;12.82;98.06
71966;BME280;59836;52.132;5.442;2022-10-23T08:44:47;101076.44;;;12.85;97.71
71966;BME280;59836;52.132;5.442;2022-10-23T08:47:24;101067.72;;;12.88;98.01
71966;BME280;59836;52.132;5.442;2022-10-23T08:50:03;101061.72;;;12.91;98.05
71966;BME280;59836;52.132;5.442;2022-10-23T08:52:41;101059.22;;;12.95;97.72
71966;BME280;59836;52.132;5.442;2022-10-23T08:55:42;101056.78;;;12.98;97.89
71966;BME280;59836;52.132;5.442;2022-10-23T08:58:17;101040.97;;;13.01;97.84
71966;BME280;59836;52.132;5.442;2022-10-23T09:00:46;101055.66;;;13.05;97.60
71966;BME280;59836;52.132;5.442;2022-10-23T09:03:13;101057.81;;;13.08;97.56
71966;BME280;59836;52.132;5.442;2022-10-23T09:06:07;101055.31;;;13.11;97.46
71966;BME280;59836;52.132;5.442;2022-10-23T09:08:58;101053.41;;;13.17;97.48
71966;BME280;59836;52.132;5.442;2022-10-23T09:15:00;101033.72;;;13.25;97.73
71966;BME280;59836;52.132;5.442;2022-10-23T09:17:30;101029.63;;;13.28;97.66
71966;BME280;59836;52.132;5.442;2022-10-23T09:20:17;101027.13;;;13.32;97.59
71966;BME280;59836;52.132;5.442;2022-10-23T09:22:56;101022.75;;;13.36;97.98
71966;BME280;59836;52.132;5.442;2022-10-23T09:25:46;101020.56;;;13.38;97.67
71966;BME280;59836;52.132;5.442;2022-10-23T09:28:30;101023.28;;;13.38;97.62
71966;BME280;59836;52.132;5.442;2022-10-23T09:31:20;101018.34;;;13.40;97.49
71966;BME280;59836;52.132;5.442;2022-10-23T09:37:01;101023.28;;;13.43;97.04
71966;BME280;59836;52.132;5.442;2022-10-23T09:40:35;101012.91;;;13.45;97.34
71966;BME280;59836;52.132;5.442;2022-10-23T09:42:37;101011.81;;;13.46;97.10
71966;BME280;59836;52.132;5.442;2022-10-23T09:45:33;101003.34;;;13.48;96.77
71966;BME280;59836;52.132;5.442;2022-10-23T09:48:15;100990.53;;;13.48;96.82
71966;BME280;59836;52.132;5.442;2022-10-23T09:51:18;100991.06;;;13.50;96.76
71966;BME280;59836;52.132;5.442;2022-10-23T09:53:49;100997.34;;;13.51;96.79
71966;BME280;59836;52.132;5.442;2022-10-23T09:56:27;100988.06;;;13.52;96.84
71966;BME280;59836;52.132;5.442;2022-10-23T09:58:58;100984.50;;;13.51;96.62
71966;BME280;59836;52.132;5.442;2022-10-23T10:01:34;100985.03;;;13.53;96.79
71966;BME280;59836;52.132;5.442;2022-10-23T10:04:01;100987.19;;;13.56;96.69
71966;BME280;59836;52.132;5.442;2022-10-23T10:06:30;100983.91;;;13.60;97.10
71966;BME280;59836;52.132;5.442;2022-10-23T10:09:11;100979.81;;;13.62;96.90
71966;BME280;59836;52.132;5.442;2022-10-23T10:11:45;100974.03;;;13.64;96.94
71966;BME280;59836;52.132;5.442;2022-10-23T10:14:25;100976.19;;;13.67;96.78
71966;BME280;59836;52.132;5.442;2022-10-23T10:21:06;100961.72;;;13.71;97.07
71966;BME280;59836;52.132;5.442;2022-10-23T10:23:50;100964.69;;;13.75;96.64
71966;BME280;59836;52.132;5.442;2022-10-23T10:29:43;100954.00;;;13.79;96.78
71966;BME280;59836;52.132;5.442;2022-10-23T10:32:23;100937.88;;;13.82;96.69
71966;BME280;59836;52.132;5.442;2022-10-23T10:34:57;100935.97;;;13.83;96.78
71966;BME280;59836;52.132;5.442;2022-10-23T10:51:07;100906.91;;;13.97;97.11
71966;BME280;59836;52.132;5.442;2022-10-23T10:56:41;100876.84;;;14.02;96.71
71966;BME280;59836;52.132;5.442;2022-10-23T10:59:36;100875.97;;;14.07;96.35
71966;BME280;59836;52.132;5.442;2022-10-23T11:11:03;100870.91;;;14.20;96.22
71966;BME280;59836;52.132;5.442;2022-10-23T11:13:36;100867.88;;;14.21;96.18
71966;BME280;59836;52.132;5.442;2022-10-23T11:19:00;100861.25;;;14.27;96.24
71966;BME280;59836;52.132;5.442;2022-10-23T11:21:39;100860.13;;;14.28;96.12
71966;BME280;59836;52.132;5.442;2022-10-23T11:27:36;100856.00;;;14.31;96.15
71966;BME280;59836;52.132;5.442;2022-10-23T11:30:45;100839.88;;;14.35;96.08
71966;BME280;59836;52.132;5.442;2022-10-23T11:39:25;100811.53;;;14.50;95.82
71966;BME280;59836;52.132;5.442;2022-10-23T11:41:58;100816.09;;;14.54;95.91
71966;BME280;59836;52.132;5.442;2022-10-23T11:44:37;100816.53;;;14.61;95.88
71966;BME280;59836;52.132;5.442;2022-10-23T11:47:28;100806.06;;;14.69;95.81
71966;BME280;59836;52.132;5.442;2022-10-23T11:52:59;100793.88;;;14.80;95.79
71966;BME280;59836;52.132;5.442;2022-10-23T11:55:59;100799.47;;;14.89;95.47
71966;BME280;59836;52.132;5.442;2022-10-23T12:01:42;100785.13;;;14.97;94.27
71966;BME280;59836;52.132;5.442;2022-10-23T12:04:25;100777.84;;;15.07;93.59
71966;BME280;59836;52.132;5.442;2022-10-23T12:06:59;100769.03;;;15.10;93.70
71966;BME280;59836;52.132;5.442;2022-10-23T12:09:44;100782.91;;;15.13;94.30
71966;BME280;59836;52.132;5.442;2022-10-23T12:12:15;100788.06;;;15.15;94.24
71966;BME280;59836;52.132;5.442;2022-10-23T12:14:49;100775.44;;;15.19;93.93
71966;BME280;59836;52.132;5.442;2022-10-23T12:17:32;100775.44;;;15.19;94.25
71966;BME280;59836;52.132;5.442;2022-10-23T12:35:06;100723.81;;;15.31;93.18
71966;BME280;59836;52.132;5.442;2022-10-23T12:37:50;100725.44;;;15.32;92.66
71966;BME280;59836;52.132;5.442;2022-10-23T12:40:23;100726.75;;;15.35;92.83
71966;BME280;59836;52.132;5.442;2022-10-23T12:42:57;100719.84;;;15.38;92.07
71966;BME280;59836;52.132;5.442;2022-10-23T12:45:31;100727.75;;;15.39;91.53
71966;BME280;59836;52.132;5.442;2022-10-23T12:47:59;100716.50;;;15.41;92.12
71966;BME280;59836;52.132;5.442;2022-10-23T12:50:34;100712.38;;;15.43;92.80
71966;BME280;59836;52.132;5.442;2022-10-23T12:53:02;100709.31;;;15.45;92.45
71966;BME280;59836;52.132;5.442;2022-10-23T12:55:45;100709.81;;;15.47;92.46
71966;BME280;59836;52.132;5.442;2022-10-23T12:58:21;100698.88;;;15.47;92.89
71966;BME280;59836;52.132;5.442;2022-10-23T13:00:58;100704.34;;;15.47;92.71
71966;BME280;59836;52.132;5.442;2022-10-23T13:03:29;100679.47;;;15.48;92.55
71966;BME280;59836;52.132;5.442;2022-10-23T13:06:09;100677.53;;;15.49;92.68
71966;BME280;59836;52.132;5.442;2022-10-23T13:08:44;100675.63;;;15.49;92.55
71966;BME280;59836;52.132;5.442;2022-10-23T13:11:17;100663.84;;;15.49;92.07
71966;BME280;59836;52.132;5.442;2022-10-23T13:13:45;100666.47;;;15.54;91.36
71966;BME280;59836;52.132;5.442;2022-10-23T13:16:24;100663.75;;;15.54;91.77
71966;BME280;59836;52.132;5.442;2022-10-23T13:18:52;100667.47;;;15.58;91.78
71966;BME280;59836;52.132;5.442;2022-10-23T13:21:22;100667.97;;;15.60;91.41
71966;BME280;59836;52.132;5.442;2022-10-23T13:23:59;100660.00;;;15.64;91.39
71966;BME280;59836;52.132;5.442;2022-10-23T13:26:43;100652.47;;;15.70;91.41
71966;BME280;59836;52.132;5.442;2022-10-23T13:32:25;100630.28;;;15.71;90.67
71966;BME280;59836;52.132;5.442;2022-10-23T13:34:53;100616.63;;;15.71;90.85
71966;BME280;59836;52.132;5.442;2022-10-23T13:37:47;100616.28;;;15.73;91.04
71966;BME280;59836;52.132;5.442;2022-10-23T13:40:21;100604.25;;;15.74;90.66
71966;BME280;59836;52.132;5.442;2022-10-23T13:42:55;100606.34;;;15.77;90.66
71966;BME280;59836;52.132;5.442;2022-10-23T13:45:25;100600.59;;;15.78;90.54
71966;BME280;59836;52.132;5.442;2022-10-23T13:47:52;100598.34;;;15.81;90.80
71966;BME280;59836;52.132;5.442;2022-10-23T13:50:18;100589.81;;;15.82;90.40
71966;BME280;59836;52.132;5.442;2022-10-23T13:52:45;100582.75;;;15.81;90.62
71966;BME280;59836;52.132;5.442;2022-10-23T13:55:22;100574.03;;;15.79;90.54
71966;BME280;59836;52.132;5.442;2022-10-23T13:57:49;100576.47;;;15.81;90.50
71966;BME280;59836;52.132;5.442;2022-10-23T14:00:24;100567.16;;;15.82;90.12
71966;BME280;59836;52.132;5.442;2022-10-23T14:02:50;100573.41;;;15.82;90.56
71966;BME280;59836;52.132;5.442;2022-10-23T14:05:17;100571.81;;;15.81;90.70
71966;BME280;59836;52.132;5.442;2022-10-23T14:07:43;100565.84;;;15.79;90.47
71966;BME280;59836;52.132;5.442;2022-10-23T14:10:10;100562.81;;;15.81;90.91
71966;BME280;59836;52.132;5.442;2022-10-23T14:12:39;100563.09;;;15.79;90.23
71966;BME280;59836;52.132;5.442;2022-10-23T14:15:21;100563.44;;;15.77;90.48
71966;BME280;59836;52.132;5.442;2022-10-23T14:17:50;100556.03;;;15.78;90.68
71966;BME280;59836;52.132;5.442;2022-10-23T14:20:21;100547.53;;;15.79;90.10
71966;BME280;59836;52.132;5.442;2022-10-23T14:22:52;100549.94;;;15.81;89.62
71966;BME280;59836;52.132;5.442;2022-10-23T14:25:19;100547.69;;;15.83;89.58
71966;BME280;59836;52.132;5.442;2022-10-23T14:27:51;100544.34;;;15.86;89.77
71966;BME280;59836;52.132;5.442;2022-10-23T14:30:18;100546.47;;;15.89;89.88
71966;BME280;59836;52.132;5.442;2022-10-23T14:32:44;100540.25;;;15.98;89.09
71966;BME280;59836;52.132;5.442;2022-10-23T14:35:11;100550.84;;;15.99;88.99
71966;BME280;59836;52.132;5.442;2022-10-23T14:37:37;100551.69;;;16.00;89.50
71966;BME280;59836;52.132;5.442;2022-10-23T14:40:05;100554.91;;;16.02;89.45
71966;BME280;59836;52.132;5.442;2022-10-23T14:42:32;100545.59;;;16.03;89.54
71966;BME280;59836;52.132;5.442;2022-10-23T14:45:00;100538.50;;;16.02;89.43
71966;BME280;59836;52.132;5.442;2022-10-23T14:47:36;100543.97;;;16.02;89.50
71966;BME280;59836;52.132;5.442;2022-10-23T14:50:02;100552.47;;;16.00;89.49
71966;BME280;59836;52.132;5.442;2022-10-23T14:52:29;100553.91;;;15.98;89.96
71966;BME280;59836;52.132;5.442;2022-10-23T14:54:55;100544.41;;;15.95;89.75
71966;BME280;59836;52.132;5.442;2022-10-23T14:57:22;100546.63;;;15.93;89.95
71966;BME280;59836;52.132;5.442;2022-10-23T14:59:52;100536.53;;;15.93;89.71
71966;BME280;59836;52.132;5.442;2022-10-23T15:02:18;100542.78;;;15.94;89.71
71966;BME280;59836;52.132;5.442;2022-10-23T15:04:45;100535.19;;;15.91;89.61
71966;BME280;59836;52.132;5.442;2022-10-23T15:07:11;100524.47;;;15.94;89.13
71966;BME280;59836;52.132;5.442;2022-10-23T15:09:40;100524.94;;;15.97;89.04
71966;BME280;59836;52.132;5.442;2022-10-23T15:12:21;100510.16;;;15.98;88.92
71966;BME280;59836;52.132;5.442;2022-10-23T15:14:48;100515.13;;;15.96;89.60
71966;BME280;59836;52.132;5.442;2022-10-23T15:17:14;100510.28;;;15.92;89.59
71966;BME280;59836;52.132;5.442;2022-10-23T15:19:41;100508.19;;;15.89;89.82